createdAt,value
2023-01-09T00:01:40.265Z,97119.81
2023-01-09T00:04:08.681Z,97117.69
2023-01-09T00:06:36.954Z,97117.13
2023-01-09T00:09:04.569Z,97115.34
2023-01-09T00:11:32.752Z,97112.88
2023-01-09T00:14:00.514Z,97112.59
2023-01-09T00:16:28.546Z,97119.84
2023-01-09T00:18:56.673Z,97118.25
2023-01-09T00:21:24.687Z,97120.34
2023-01-09T00:23:55.043Z,97109.59
2023-01-09T00:26:23.459Z,97103.41
2023-01-09T00:28:54.042Z,97105.25
2023-01-09T00:31:22.620Z,97103.66
2023-01-09T00:34:01.524Z,97108.81
2023-01-09T00:36:29.721Z,97101.28
2023-01-09T00:38:57.417Z,97102.06
2023-01-09T00:41:36.259Z,97111.72
2023-01-09T00:44:16.535Z,97103.47
2023-01-09T00:46:51.964Z,97115.16
2023-01-09T00:49:20.588Z,97117.00
2023-01-09T00:51:49.021Z,97119.16
2023-01-09T00:54:19.016Z,97127.78
2023-01-09T00:56:47.173Z,97112.38
2023-01-09T00:59:14.839Z,97105.81
2023-01-09T01:01:42.905Z,97102.16
2023-01-09T01:04:29.196Z,97103.66
2023-01-09T01:07:16.462Z,97095.72
2023-01-09T01:10:20.161Z,97106.78
2023-01-09T01:12:50.254Z,97098.28
2023-01-09T01:15:19.758Z,97100.44
2023-01-09T01:17:47.924Z,97106.88
2023-01-09T01:20:18.827Z,97102.16
2023-01-09T01:22:46.876Z,97103.66
2023-01-09T01:25:17.232Z,97099.91
2023-01-09T01:27:45.750Z,97100.47
2023-01-09T01:30:16.632Z,97098.81
2023-01-09T01:32:44.783Z,97092.16
2023-01-09T01:35:12.718Z,97095.25
2023-01-09T01:37:40.843Z,97108.00
2023-01-09T01:40:11.816Z,97101.03
2023-01-09T01:42:50.458Z,97102.69
2023-01-09T01:45:20.574Z,97094.41
2023-01-09T01:48:15.764Z,97094.94
2023-01-09T01:50:47.674Z,97095.16
2023-01-09T01:53:24.989Z,97094.44
2023-01-09T01:56:11.502Z,97097.94
2023-01-09T01:59:01.607Z,97097.81
2023-01-09T02:01:31.018Z,97109.22
2023-01-09T02:04:02.110Z,97099.75
2023-01-09T02:06:33.866Z,97104.25
2023-01-09T02:09:04.654Z,97102.03
2023-01-09T02:11:32.918Z,97104.94
2023-01-09T02:14:02.072Z,97102.78
2023-01-09T02:16:58.457Z,97107.19
2023-01-09T02:20:03.018Z,97101.03
2023-01-09T02:22:56.524Z,97095.47
2023-01-09T02:25:53.884Z,97085.78
2023-01-09T02:29:04.967Z,97091.66
2023-01-09T02:32:05.950Z,97091.09
2023-01-09T02:34:47.482Z,97083.13
2023-01-09T02:37:43.453Z,97080.28
2023-01-09T02:40:38.321Z,97076.94
2023-01-09T02:43:07.621Z,97084.81
2023-01-09T02:45:35.314Z,97093.75
2023-01-09T02:48:03.045Z,97115.56
2023-01-09T02:51:06.765Z,97117.97
2023-01-09T02:54:06.608Z,97128.94
2023-01-09T02:56:40.090Z,97118.63
2023-01-09T02:59:34.692Z,97124.78
2023-01-09T03:02:24.113Z,97123.59
2023-01-09T03:05:21.362Z,97119.25
2023-01-09T03:08:15.439Z,97139.00
2023-01-09T03:10:53.348Z,97146.53
2023-01-09T03:13:25.127Z,97142.69
2023-01-09T03:15:55.982Z,97147.81
2023-01-09T03:18:27.343Z,97144.38
2023-01-09T03:20:56.045Z,97149.63
2023-01-09T03:23:23.975Z,97147.03
2023-01-09T03:25:51.577Z,97156.72
2023-01-09T03:28:31.866Z,97150.50
2023-01-09T03:30:59.439Z,97141.19
2023-01-09T03:33:27.018Z,97148.97
2023-01-09T03:35:54.582Z,97168.63
2023-01-09T03:38:22.226Z,97164.88
2023-01-09T03:40:49.837Z,97179.22
2023-01-09T03:43:17.403Z,97183.84
2023-01-09T03:45:45.113Z,97186.81
2023-01-09T03:48:12.763Z,97196.06
2023-01-09T03:50:45.674Z,97200.88
2023-01-09T03:53:13.974Z,97204.22
2023-01-09T03:55:50.411Z,97231.44
2023-01-09T03:58:19.348Z,97228.38
2023-01-09T04:00:48.844Z,97224.44
2023-01-09T04:03:19.830Z,97227.22
2023-01-09T04:05:50.112Z,97235.19
2023-01-09T04:08:18.712Z,97245.50
2023-01-09T04:10:48.075Z,97245.22
2023-01-09T04:13:16.154Z,97259.88
2023-01-09T04:15:44.119Z,97277.00
2023-01-09T04:18:11.771Z,97281.81
2023-01-09T04:20:39.408Z,97304.56
2023-01-09T04:23:07.059Z,97315.69
2023-01-09T04:25:34.815Z,97327.41
2023-01-09T04:28:02.397Z,97316.72
2023-01-09T04:30:30.037Z,97329.56
2023-01-09T04:32:57.649Z,97339.94
2023-01-09T04:35:25.241Z,97346.16
2023-01-09T04:37:52.857Z,97348.88
2023-01-09T04:40:20.500Z,97345.22
2023-01-09T04:42:48.172Z,97358.53
2023-01-09T04:45:17.092Z,97367.78
2023-01-09T04:47:45.105Z,97369.38
2023-01-09T04:50:13.441Z,97378.19
2023-01-09T04:52:41.416Z,97375.22
2023-01-09T04:55:09.560Z,97387.13
2023-01-09T04:57:37.829Z,97382.13
2023-01-09T05:00:12.033Z,97390.75
2023-01-09T05:02:40.840Z,97393.63
2023-01-09T05:05:11.666Z,97399.69
2023-01-09T05:07:40.005Z,97400.09
2023-01-09T05:10:09.805Z,97407.47
2023-01-09T05:12:40.356Z,97403.13
2023-01-09T05:15:09.706Z,97413.50
2023-01-09T05:17:37.442Z,97421.59
2023-01-09T05:20:05.821Z,97429.28
2023-01-09T05:22:33.516Z,97439.25
2023-01-09T05:25:01.221Z,97444.09
2023-01-09T05:27:30.279Z,97458.50
2023-01-09T05:29:57.765Z,97467.34
2023-01-09T05:32:25.406Z,97468.22
2023-01-09T05:34:52.986Z,97479.19
2023-01-09T05:37:20.706Z,97480.25
2023-01-09T05:39:52.813Z,97484.41
2023-01-09T05:42:20.392Z,97509.56
2023-01-09T05:44:48.040Z,97495.88
2023-01-09T05:47:15.637Z,97497.06
2023-01-09T05:49:43.344Z,97515.84
2023-01-09T05:52:10.944Z,97518.16
2023-01-09T05:54:38.526Z,97508.97
2023-01-09T05:57:06.147Z,97509.09
2023-01-09T05:59:33.811Z,97509.44
2023-01-09T06:02:01.437Z,97513.59
2023-01-09T06:04:29.904Z,97521.38
2023-01-09T06:06:58.499Z,97529.16
2023-01-09T06:09:31.479Z,97537.09
2023-01-09T06:11:59.166Z,97548.00
2023-01-09T06:14:26.734Z,97546.88
2023-01-09T06:16:59.794Z,97548.50
2023-01-09T06:19:27.647Z,97547.94
2023-01-09T06:21:55.285Z,97556.19
2023-01-09T06:24:22.884Z,97535.22
2023-01-09T06:26:50.574Z,97535.75
2023-01-09T06:29:18.779Z,97534.94
2023-01-09T06:32:11.433Z,97544.84
2023-01-09T06:34:39.269Z,97541.78
2023-01-09T06:37:06.934Z,97540.22
2023-01-09T06:39:34.712Z,97543.38
2023-01-09T06:42:02.572Z,97548.25
2023-01-09T06:44:30.275Z,97547.78
2023-01-09T06:46:57.846Z,97556.06
2023-01-09T06:49:25.529Z,97549.38
2023-01-09T06:51:53.563Z,97551.22
2023-01-09T06:54:22.665Z,97561.94
2023-01-09T06:56:50.463Z,97553.00
2023-01-09T06:59:18.101Z,97558.13
2023-01-09T07:01:45.894Z,97555.72
2023-01-09T07:04:13.835Z,97557.78
2023-01-09T07:06:41.455Z,97557.69
2023-01-09T07:09:13.154Z,97567.91
2023-01-09T07:11:41.502Z,97575.38
2023-01-09T07:14:09.176Z,97579.13
2023-01-09T07:16:36.808Z,97574.00
2023-01-09T07:19:04.536Z,97569.34
2023-01-09T07:21:32.953Z,97573.06
2023-01-09T07:24:00.713Z,97572.16
2023-01-09T07:26:28.430Z,97577.41
2023-01-09T07:28:56.103Z,97573.41
2023-01-09T07:31:24.012Z,97575.22
2023-01-09T07:33:51.695Z,97574.38
2023-01-09T07:36:19.384Z,97587.47
2023-01-09T07:38:46.987Z,97586.53
2023-01-09T07:41:14.710Z,97580.56
2023-01-09T07:43:42.446Z,97589.44
2023-01-09T07:46:10.069Z,97589.06
2023-01-09T07:48:37.631Z,97607.25
2023-01-09T07:51:06.209Z,97602.91
2023-01-09T07:53:35.844Z,97614.00
2023-01-09T07:56:03.673Z,97611.19
2023-01-09T07:58:31.427Z,97612.06
2023-01-09T08:01:01.747Z,97611.88
2023-01-09T08:03:29.507Z,97617.59
2023-01-09T08:05:57.162Z,97616.06
2023-01-09T08:08:24.906Z,97618.19
2023-01-09T08:10:52.624Z,97610.47
2023-01-09T08:13:20.243Z,97612.38
2023-01-09T08:15:47.926Z,97604.66
2023-01-09T08:18:15.647Z,97610.47
2023-01-09T08:20:43.272Z,97600.72
2023-01-09T08:23:10.901Z,97604.13
2023-01-09T08:25:38.631Z,97603.38
2023-01-09T08:28:06.375Z,97599.50
2023-01-09T08:30:34.002Z,97599.28
2023-01-09T08:33:01.656Z,97599.94
2023-01-09T08:35:29.309Z,97612.69
2023-01-09T08:37:57.041Z,97613.78
2023-01-09T08:40:24.888Z,97609.44
2023-01-09T08:43:11.016Z,97600.25
2023-01-09T08:45:57.105Z,97602.03
2023-01-09T08:48:24.815Z,97604.84
2023-01-09T08:50:54.114Z,97602.78
2023-01-09T08:53:21.730Z,97607.09
2023-01-09T08:55:49.551Z,97598.81
2023-01-09T08:58:17.226Z,97610.56
2023-01-09T09:00:44.892Z,97599.22
2023-01-09T09:03:12.488Z,97605.78
2023-01-09T09:06:09.107Z,97601.56
2023-01-09T09:08:52.449Z,97601.88
2023-01-09T09:11:43.469Z,97593.34
2023-01-09T09:14:29.367Z,97594.31
2023-01-09T09:16:59.676Z,97602.00
2023-01-09T09:19:27.318Z,97599.25
2023-01-09T09:21:54.943Z,97594.94
2023-01-09T09:24:22.467Z,97591.81
2023-01-09T09:26:50.165Z,97594.47
2023-01-09T09:29:17.896Z,97602.00
2023-01-09T09:31:49.134Z,97599.16
2023-01-09T09:34:19.637Z,97601.56
2023-01-09T09:36:47.668Z,97584.88
2023-01-09T09:39:15.303Z,97588.19
2023-01-09T09:42:38.653Z,97586.75
2023-01-09T09:45:22.981Z,97606.81
2023-01-09T09:48:16.442Z,97614.28
2023-01-09T09:51:14.767Z,97622.94
2023-01-09T09:53:56.133Z,97622.75
2023-01-09T09:56:24.858Z,97622.94
2023-01-09T09:59:10.874Z,97621.91
2023-01-09T10:01:52.029Z,97619.13
2023-01-09T10:04:24.225Z,97610.78
2023-01-09T10:07:20.680Z,97616.66
2023-01-09T10:10:01.224Z,97606.44
2023-01-09T10:12:39.321Z,97596.59
2023-01-09T10:15:44.989Z,97600.38
2023-01-09T10:18:43.111Z,97596.00
2023-01-09T10:21:32.397Z,97587.44
2023-01-09T10:24:51.767Z,97579.81
2023-01-09T10:27:59.211Z,97581.53
2023-01-09T10:30:44.847Z,97582.75
2023-01-09T10:33:46.354Z,97578.75
2023-01-09T10:36:31.760Z,97581.41
2023-01-09T10:39:04.412Z,97582.28
2023-01-09T10:42:14.031Z,97579.13
2023-01-09T10:44:56.475Z,97583.13
2023-01-09T10:47:34.339Z,97576.97
2023-01-09T10:50:20.073Z,97569.63
2023-01-09T10:52:51.849Z,97576.44
2023-01-09T10:55:44.998Z,97575.63
2023-01-09T10:58:19.237Z,97572.94
2023-01-09T11:00:48.877Z,97572.38
2023-01-09T11:03:20.189Z,97576.44
2023-01-09T11:06:00.834Z,97579.31
2023-01-09T11:08:31.996Z,97576.56
2023-01-09T11:11:02.466Z,97578.09
2023-01-09T11:13:36.641Z,97559.91
2023-01-09T11:16:09.360Z,97574.34
2023-01-09T11:18:55.835Z,97561.47
2023-01-09T11:21:32.253Z,97569.94
2023-01-09T11:24:21.178Z,97568.78
2023-01-09T11:26:52.471Z,97573.34
2023-01-09T11:29:25.819Z,97575.84
2023-01-09T11:31:59.151Z,97563.81
2023-01-09T11:34:31.273Z,97560.66
2023-01-09T11:37:11.980Z,97558.34
2023-01-09T11:39:47.089Z,97564.28
2023-01-09T11:42:51.448Z,97553.97
2023-01-09T11:45:30.064Z,97555.09
2023-01-09T11:48:28.987Z,97551.22
2023-01-09T11:51:38.422Z,97542.97
2023-01-09T11:54:28.846Z,97542.72
2023-01-09T11:56:56.917Z,97545.44
2023-01-09T11:59:30.827Z,97549.59
2023-01-09T12:02:06.260Z,97546.03
2023-01-09T12:04:50.847Z,97526.38
2023-01-09T12:07:44.100Z,97540.66
2023-01-09T12:10:46.510Z,97542.06
2023-01-09T12:13:51.124Z,97540.72
2023-01-09T12:16:46.191Z,97533.13
2023-01-09T12:19:34.405Z,97531.00
2023-01-09T12:22:12.323Z,97534.66
2023-01-09T12:25:29.190Z,97545.19
2023-01-09T12:28:32.866Z,97534.09
2023-01-09T12:31:41.016Z,97541.94
2023-01-09T12:34:51.769Z,97547.78
2023-01-09T12:37:40.902Z,97557.91
2023-01-09T12:41:00.859Z,97557.63
2023-01-09T12:43:40.532Z,97551.06
2023-01-09T12:46:19.999Z,97551.66
2023-01-09T12:49:31.101Z,97564.69
2023-01-09T12:52:10.680Z,97558.03
2023-01-09T12:54:54.215Z,97558.03
2023-01-09T12:57:35.019Z,97559.66
2023-01-09T13:00:35.561Z,97555.06
2023-01-09T13:03:31.262Z,97555.84
2023-01-09T13:06:01.630Z,97563.63
2023-01-09T13:08:45.859Z,97556.44
2023-01-09T13:11:26.132Z,97541.06
2023-01-09T13:14:12.864Z,97550.97
2023-01-09T13:16:48.839Z,97546.69
2023-01-09T13:19:37.348Z,97551.13
2023-01-09T13:22:07.182Z,97561.16
2023-01-09T13:25:19.539Z,97566.44
2023-01-09T13:27:57.596Z,97588.00
2023-01-09T13:30:47.424Z,97613.94
2023-01-09T13:33:24.420Z,97605.59
2023-01-09T13:35:55.739Z,97617.19
2023-01-09T13:38:28.008Z,97614.34
2023-01-09T13:41:35.305Z,97610.94
2023-01-09T13:44:07.782Z,97621.13
2023-01-09T13:46:43.413Z,97620.66
2023-01-09T13:49:36.669Z,97615.28
2023-01-09T13:52:38.431Z,97613.00
2023-01-09T13:55:28.953Z,97617.25
2023-01-09T13:58:06.117Z,97616.28
2023-01-09T14:00:38.863Z,97619.41
2023-01-09T14:03:37.515Z,97624.03
2023-01-09T14:06:16.193Z,97624.84
2023-01-09T14:08:45.889Z,97633.00
2023-01-09T14:11:21.241Z,97638.38
2023-01-09T14:14:00.632Z,97652.28
2023-01-09T14:16:30.943Z,97645.16
2023-01-09T14:19:06.149Z,97659.44
2023-01-09T14:21:56.617Z,97668.59
2023-01-09T14:24:43.330Z,97655.25
2023-01-09T14:27:49.349Z,97665.03
2023-01-09T14:30:26.466Z,97659.66
2023-01-09T14:33:04.305Z,97664.06
2023-01-09T14:36:27.745Z,97665.78
2023-01-09T14:39:09.887Z,97666.44
2023-01-09T14:41:57.872Z,97651.94
2023-01-09T14:44:29.935Z,97667.97
2023-01-09T14:47:14.436Z,97671.75
2023-01-09T14:49:54.843Z,97683.25
2023-01-09T14:52:32.032Z,97691.50
2023-01-09T14:55:12.447Z,97696.25
2023-01-09T14:57:40.097Z,97700.81
2023-01-09T15:00:14.639Z,97704.00
2023-01-09T15:02:43.665Z,97713.19
2023-01-09T15:05:23.861Z,97731.03
2023-01-09T15:07:56.701Z,97732.66
2023-01-09T15:10:35.440Z,97736.75
2023-01-09T15:13:06.446Z,97738.31
2023-01-09T15:15:36.109Z,97749.38
2023-01-09T15:18:10.571Z,97754.94
2023-01-09T15:20:38.384Z,97757.97
2023-01-09T15:24:59.043Z,97773.66
2023-01-09T15:27:27.038Z,97773.31
2023-01-09T15:29:54.761Z,97766.03
2023-01-09T15:32:23.954Z,97767.59
2023-01-09T15:34:54.233Z,97772.78
2023-01-09T15:37:38.701Z,97769.84
2023-01-09T15:40:27.473Z,97778.66
2023-01-09T15:42:58.107Z,97765.50
2023-01-09T15:45:41.209Z,97766.97
2023-01-09T15:48:33.375Z,97770.97
2023-01-09T15:51:22.163Z,97777.50
2023-01-09T15:53:53.854Z,97774.41
2023-01-09T15:56:30.668Z,97775.47
2023-01-09T15:59:01.943Z,97775.72
2023-01-09T16:01:41.417Z,97782.44
2023-01-09T16:04:16.717Z,97774.97
2023-01-09T16:06:54.470Z,97793.06
2023-01-09T16:09:30.859Z,97805.75
2023-01-09T16:12:02.073Z,97820.56
2023-01-09T16:14:39.805Z,97845.00
2023-01-09T16:17:15.801Z,97854.66
2023-01-09T16:20:24.633Z,97859.19
2023-01-09T16:22:55.702Z,97871.06
2023-01-09T16:25:34.601Z,97874.41
2023-01-09T16:28:28.188Z,97874.03
2023-01-09T16:31:04.134Z,97869.63
2023-01-09T16:33:32.581Z,97874.13
2023-01-09T16:36:00.761Z,97871.03
2023-01-09T16:38:28.891Z,97878.88
2023-01-09T16:41:26.475Z,97880.88
2023-01-09T16:43:54.291Z,97883.47
2023-01-09T16:46:22.299Z,97890.72
2023-01-09T16:48:50.050Z,97892.88
2023-01-09T16:51:22.944Z,97899.84
2023-01-09T16:53:50.862Z,97902.19
2023-01-09T16:56:22.505Z,97906.75
2023-01-09T16:58:52.613Z,97902.22
2023-01-09T17:01:21.441Z,97908.25
2023-01-09T17:03:52.990Z,97909.56
2023-01-09T17:06:32.372Z,97903.41
2023-01-09T17:08:59.994Z,97909.34
2023-01-09T17:11:31.591Z,97923.47
2023-01-09T17:14:00.844Z,97933.88
2023-01-09T17:16:30.452Z,97933.31
2023-01-09T17:18:58.178Z,97932.75
2023-01-09T17:21:29.155Z,97934.59
2023-01-09T17:24:16.721Z,97936.06
2023-01-09T17:27:06.522Z,97936.94
2023-01-09T17:29:34.873Z,97932.16
2023-01-09T17:32:02.767Z,97937.38
2023-01-09T17:34:31.665Z,97937.81
2023-01-09T17:36:59.361Z,97931.41
2023-01-09T17:39:27.250Z,97948.78
2023-01-09T17:41:57.488Z,97942.56
2023-01-09T17:44:25.104Z,97944.44
2023-01-09T17:46:52.758Z,97947.63
2023-01-09T17:49:22.359Z,97951.09
2023-01-09T17:51:50.128Z,97948.91
2023-01-09T17:54:19.234Z,97941.50
2023-01-09T17:56:51.021Z,97938.66
2023-01-09T17:59:19.111Z,97942.09
2023-01-09T18:01:47.801Z,97952.38
2023-01-09T18:04:15.816Z,97954.19
2023-01-09T18:06:43.941Z,97957.28
2023-01-09T18:09:17.185Z,97959.75
2023-01-09T18:11:45.709Z,97960.66
2023-01-09T18:14:13.918Z,97972.41
2023-01-09T18:16:42.133Z,97982.94
2023-01-09T18:19:10.303Z,97990.97
2023-01-09T18:21:37.952Z,97989.28
2023-01-09T18:24:06.123Z,97994.00
2023-01-09T18:26:33.861Z,98023.09
2023-01-09T18:29:01.790Z,98014.69
2023-01-09T18:31:30.451Z,98020.53
2023-01-09T18:34:02.188Z,98032.31
2023-01-09T18:36:30.726Z,98036.75
2023-01-09T18:39:01.443Z,98044.00
2023-01-09T18:41:30.870Z,98048.53
2023-01-09T18:44:01.527Z,98049.22
2023-01-09T18:46:32.758Z,98052.56
2023-01-09T18:49:03.495Z,98051.25
2023-01-09T18:51:34.409Z,98065.47
2023-01-09T18:54:02.325Z,98067.53
2023-01-09T18:56:30.021Z,98078.34
2023-01-09T18:58:58.625Z,98082.63
2023-01-09T19:01:28.615Z,98083.50
2023-01-09T19:03:58.135Z,98098.00
2023-01-09T19:06:27.872Z,98093.75
2023-01-09T19:08:56.116Z,98107.00
2023-01-09T19:11:23.815Z,98116.72
2023-01-09T19:13:51.647Z,98113.31
2023-01-09T19:16:19.566Z,98121.84
2023-01-09T19:18:47.336Z,98125.31
2023-01-09T19:21:19.432Z,98134.34
2023-01-09T19:23:48.859Z,98146.63
2023-01-09T19:26:23.566Z,98150.38
2023-01-09T19:28:55.272Z,98154.22
2023-01-09T19:31:25.032Z,98157.50
2023-01-09T19:33:53.846Z,98162.63
2023-01-09T19:36:22.608Z,98159.31
2023-01-09T19:39:01.041Z,98159.81
2023-01-09T19:41:30.031Z,98158.84
2023-01-09T19:44:00.148Z,98171.78
2023-01-09T19:46:29.685Z,98169.28
2023-01-09T19:48:59.091Z,98179.13
2023-01-09T19:51:26.969Z,98182.13
2023-01-09T19:56:36.375Z,98196.28
2023-01-09T19:59:05.656Z,98192.56
2023-01-09T20:01:37.299Z,98203.81
2023-01-09T20:04:13.658Z,98206.31
2023-01-09T20:06:47.654Z,98197.59
2023-01-09T20:09:22.303Z,98206.13
2023-01-09T20:11:49.956Z,98207.09
2023-01-09T20:14:19.290Z,98194.81
2023-01-09T20:16:48.677Z,98199.47
2023-01-09T20:19:16.970Z,98204.69
2023-01-09T20:21:44.985Z,98204.34
2023-01-09T20:24:16.919Z,98205.13
2023-01-09T20:26:46.245Z,98215.31
2023-01-09T20:29:14.261Z,98227.88
2023-01-09T20:31:42.385Z,98219.22
2023-01-09T20:34:15.787Z,98215.22
2023-01-09T20:36:44.224Z,98227.38
2023-01-09T20:39:12.592Z,98239.69
2023-01-09T20:41:40.648Z,98247.09
2023-01-09T20:44:13.117Z,98250.91
2023-01-09T20:46:47.998Z,98244.94
2023-01-09T20:49:20.839Z,98254.66
2023-01-09T20:51:52.052Z,98254.53
2023-01-09T20:54:21.571Z,98248.44
2023-01-09T20:56:49.900Z,98251.00
2023-01-09T20:59:22.716Z,98257.22
2023-01-09T21:01:51.055Z,98252.09
2023-01-09T21:04:19.596Z,98249.84
2023-01-09T21:06:49.752Z,98244.38
2023-01-09T21:09:18.008Z,98243.06
2023-01-09T21:11:45.828Z,98249.78
2023-01-09T21:14:13.478Z,98253.81
2023-01-09T21:16:41.247Z,98254.28
2023-01-09T21:19:09.874Z,98256.91
2023-01-09T21:21:37.580Z,98260.03
2023-01-09T21:24:07.477Z,98261.88
2023-01-09T21:26:35.385Z,98265.41
2023-01-09T21:29:08.325Z,98272.47
2023-01-09T21:31:36.207Z,98276.09
2023-01-09T21:34:07.099Z,98268.19
2023-01-09T21:36:35.954Z,98280.50
2023-01-09T21:39:07.924Z,98286.56
2023-01-09T21:41:55.144Z,98292.41
2023-01-09T21:44:41.155Z,98293.75
2023-01-09T21:47:08.805Z,98299.91
2023-01-09T21:49:41.128Z,98299.03
2023-01-09T21:52:10.325Z,98304.88
2023-01-09T21:54:37.904Z,98311.84
2023-01-09T21:57:05.927Z,98321.56
2023-01-09T21:59:33.844Z,98322.69
2023-01-09T22:02:01.793Z,98316.97
2023-01-09T22:04:30.574Z,98333.53
2023-01-09T22:06:58.206Z,98326.84
2023-01-09T22:09:30.943Z,98331.72
2023-01-09T22:11:58.943Z,98328.66
2023-01-09T22:14:26.727Z,98331.84
2023-01-09T22:16:54.320Z,98333.06
2023-01-09T22:19:22.323Z,98333.66
2023-01-09T22:21:50.210Z,98334.41
2023-01-09T22:24:19.981Z,98346.19
2023-01-09T22:26:48.163Z,98347.56
2023-01-09T22:29:18.341Z,98352.69
2023-01-09T22:31:49.713Z,98352.72
2023-01-09T22:34:19.314Z,98358.03
2023-01-09T22:36:47.743Z,98361.81
2023-01-09T22:39:18.071Z,98372.06
2023-01-09T22:41:51.300Z,98380.97
2023-01-09T22:44:19.341Z,98384.09
2023-01-09T22:46:46.950Z,98395.97
2023-01-09T22:49:14.611Z,98399.38
2023-01-09T22:51:42.226Z,98405.28
2023-01-09T22:54:09.891Z,98403.03
2023-01-09T22:56:37.593Z,98408.28
2023-01-09T22:59:05.748Z,98409.44
2023-01-09T23:01:33.388Z,98407.06
2023-01-09T23:04:01.019Z,98408.81
2023-01-09T23:06:28.696Z,98414.03
2023-01-09T23:08:56.327Z,98414.84
2023-01-09T23:11:47.554Z,98425.19
2023-01-09T23:14:16.120Z,98422.38
2023-01-09T23:16:44.054Z,98429.50
2023-01-09T23:19:17.372Z,98432.03
2023-01-09T23:21:45.839Z,98439.09
2023-01-09T23:24:16.190Z,98441.97
2023-01-09T23:26:44.728Z,98446.31
2023-01-09T23:29:13.920Z,98454.28
2023-01-09T23:31:41.924Z,98458.41
2023-01-09T23:34:19.614Z,98471.63
2023-01-09T23:36:49.967Z,98479.13
2023-01-09T23:39:17.870Z,98473.03
2023-01-09T23:42:03.913Z,98479.06
2023-01-09T23:44:31.749Z,98480.28
2023-01-09T23:46:59.778Z,98486.16
2023-01-09T23:49:28.431Z,98479.53
2023-01-09T23:51:56.552Z,98478.59
2023-01-09T23:54:24.653Z,98488.09
2023-01-09T23:56:53.411Z,98499.16
2023-01-09T23:59:21.089Z,98508.16
